Accueil
METAR-TAF:

METAR-TAF

Aéroports :

Plaisance, Italie

latitude: 44-55N, longitude: 009-44E, altitude: 134 m

Observation

Le bulletin a été fait il y a 52 minutes, à 16:55 UTC
Vent 3 kt de sud-est
Température 23°C
Humidité 89%
Pression 1017 hPa
Visibilité: 4000 m
brume

METAR: LIMS 281655Z 13003KT 4000 BR NSC 23/21 Q1017 RMK BKN BKN200 VIS MIN 4000 WIND THR30 12002KT GRN

Heure: 19:47 (17:47 UTC)


TAF: absent

Observations et prévisions météorologiques de plus de 4000 aéroports (messages METAR et TAF).

Les stations disponibles sont représentées par des disques jaunes et rouges sur la carte.

Passer la souris dessus pour voir le nom de la station.

Cliquer dessus pour voir les observations et prévisions météorologiques.

Pour changer de carte: cliquez sur les boutons verts avec une croix noire pour zoomer, sur le bouton vert avec un tiret pour effectuer un zoom arrière, ou sur les flèches vertes pour les cartes adjacentes.


METAR-TAF: